Time;durP1;ratioP1;P1;durP2;ratioP2;P2;SDS_P1;SDS_P2;PMS_P1;PMS_P2;Temp;Humidity;BMP_temperature;BMP_pressure;BME280_temperature;BME280_humidity;BME280_pressure;Samples;Min_cycle;Max_cycle;Signal;HPM_P1;HPM_P2
2023/10/29 00:03:13;;;;;;;;;;;13.10;99.90;;;;;;6764717;87;20058;-80
2023/10/29 00:13:13;;;;;;;;;;;13.10;99.90;;;;;;6763681;88;20574;-80
2023/10/29 00:23:14;;;;;;;;;;;13.10;99.90;;;;;;6763931;87;20063;-80
2023/10/29 00:33:14;;;;;;;;;;;13.10;99.90;;;;;;6769353;87;20076;-79
2023/10/29 00:43:15;;;;;;;;;;;13.30;99.90;;;;;;6763357;88;20056;-80
2023/10/29 00:53:16;;;;;;;;;;;13.50;99.90;;;;;;6762608;87;20088;-80
2023/10/29 01:03:18;;;;;;;;;;;13.80;99.90;;;;;;6760766;87;20070;-80
2023/10/29 01:13:18;;;;;;;;;;;13.90;99.90;;;;;;6764805;87;20061;-81
2023/10/29 01:23:19;;;;;;;;;;;13.70;99.90;;;;;;6777122;88;20072;-80
2023/10/29 01:33:19;;;;;;;;;;;13.60;99.90;;;;;;6778140;87;20079;-79
2023/10/29 01:43:20;;;;;;;;;;;13.60;99.90;;;;;;6762211;88;20132;-80
2023/10/29 01:53:20;;;;;;;;;;;13.60;99.90;;;;;;6757458;88;20076;-79
2023/10/29 02:03:21;;;;;;;;;;;13.70;99.90;;;;;;6744053;88;20115;-80
2023/10/29 02:13:22;;;;;;;;;;;13.70;99.90;;;;;;6744633;88;20047;-80
2023/10/29 02:23:22;;;;;;;;;;;13.60;99.90;;;;;;6744765;88;20066;-80
2023/10/29 02:33:23;;;;;;;;;;;13.40;99.90;;;;;;6745471;88;20139;-81
2023/10/29 02:43:23;;;;;;;;;;;13.30;99.90;;;;;;6760304;88;20083;-80
2023/10/29 02:53:23;;;;;;;;;;;13.30;99.90;;;;;;6753806;88;20093;-80
2023/10/29 03:03:24;;;;;;;;;;;13.20;99.90;;;;;;6748989;88;20083;-81
2023/10/29 03:13:24;;;;;;;;;;;13.20;99.90;;;;;;6741927;88;20039;-80
2023/10/29 03:23:25;;;;;;;;;;;13.20;99.90;;;;;;6741410;88;20138;-79
2023/10/29 03:33:25;;;;;;;;;;;13.30;99.90;;;;;;6743203;88;20055;-82
2023/10/29 03:43:26;;;;;;;;;;;13.40;99.90;;;;;;6744737;88;20051;-81
2023/10/29 03:53:26;;;;;;;;;;;13.40;99.90;;;;;;6743548;88;20136;-80
2023/10/29 04:03:28;;;;;;;;;;;13.70;99.90;;;;;;6742527;88;20104;-80
2023/10/29 04:13:28;;;;;;;;;;;13.80;99.90;;;;;;6742508;88;20207;-81
2023/10/29 04:23:29;;;;;;;;;;;14.00;99.90;;;;;;6738739;88;20144;-84
2023/10/29 04:33:29;;;;;;;;;;;14.00;99.90;;;;;;6741893;88;20077;-81
2023/10/29 04:43:30;;;;;;;;;;;13.90;99.90;;;;;;6742376;88;20062;-82
2023/10/29 04:53:31;;;;;;;;;;;13.90;99.90;;;;;;6725356;88;20076;-81
2023/10/29 05:03:31;;;;;;;;;;;13.90;99.90;;;;;;6732261;88;20206;-80
2023/10/29 05:13:33;;;;;;;;;;;14.00;99.90;;;;;;6733263;88;20090;-80
2023/10/29 05:23:36;;;;;;;;;;;14.70;99.90;;;;;;6742155;88;20047;-80
2023/10/29 05:33:37;;;;;;;;;;;14.90;99.90;;;;;;6704739;88;20059;-80
2023/10/29 05:43:38;;;;;;;;;;;15.10;99.90;;;;;;6710058;88;20055;-83
2023/10/29 05:53:38;;;;;;;;;;;15.00;99.90;;;;;;6748333;88;20076;-82
2023/10/29 06:03:39;;;;;;;;;;;14.90;99.90;;;;;;6749359;88;20063;-82
2023/10/29 06:13:39;;;;;;;;;;;15.00;99.90;;;;;;6739712;88;20350;-82
2023/10/29 06:23:40;;;;;;;;;;;14.90;99.90;;;;;;6740494;88;20134;-83
2023/10/29 06:33:41;;;;;;;;;;;14.70;99.90;;;;;;6741852;88;20061;-82
2023/10/29 06:43:41;;;;;;;;;;;14.50;99.90;;;;;;6743817;88;20108;-81
2023/10/29 06:53:42;;;;;;;;;;;14.40;99.90;;;;;;6745165;88;20082;-82
2023/10/29 07:03:42;;;;;;;;;;;14.30;99.90;;;;;;6739101;88;20078;-82
2023/10/29 07:13:43;;;;;;;;;;;14.50;99.90;;;;;;6740760;88;20062;-79
2023/10/29 07:23:44;;;;;;;;;;;14.30;99.90;;;;;;6724668;88;20217;-79
2023/10/29 07:33:44;;;;;;;;;;;14.50;99.90;;;;;;6729220;88;20058;-80
2023/10/29 07:43:45;;;;;;;;;;;14.40;99.90;;;;;;6750707;88;20064;-79
2023/10/29 07:53:45;;;;;;;;;;;14.50;99.90;;;;;;6754188;88;20054;-79
2023/10/29 08:03:46;;;;;;;;;;;14.60;99.90;;;;;;6743001;88;20066;-80
2023/10/29 08:13:46;;;;;;;;;;;14.90;99.90;;;;;;6745936;88;20084;-82
2023/10/29 08:23:47;;;;;;;;;;;15.60;99.90;;;;;;6743802;88;20072;-82
2023/10/29 08:33:48;;;;;;;;;;;15.40;99.90;;;;;;6748733;88;20366;-82
2023/10/29 08:43:49;;;;;;;;;;;15.30;99.90;;;;;;6744100;88;20062;-81
2023/10/29 08:53:49;;;;;;;;;;;15.20;99.90;;;;;;6741332;88;20158;-82
2023/10/29 09:03:50;;;;;;;;;;;15.20;99.90;;;;;;6739420;88;20054;-82
2023/10/29 09:13:50;;;;;;;;;;;15.10;99.90;;;;;;6743869;88;20026;-81
2023/10/29 09:23:51;;;;;;;;;;;15.00;99.90;;;;;;6750119;88;20059;-80
2023/10/29 09:33:51;;;;;;;;;;;15.10;99.90;;;;;;6741112;88;20644;-80
2023/10/29 09:43:52;;;;;;;;;;;15.10;99.90;;;;;;6753734;88;20082;-79
2023/10/29 09:53:54;;;;;;;;;;;15.00;99.90;;;;;;6760969;88;20045;-80
2023/10/29 10:03:54;;;;;;;;;;;15.00;99.90;;;;;;6760475;88;20125;-79
2023/10/29 10:13:55;;;;;;;;;;;14.90;99.90;;;;;;6757014;88;20564;-80
2023/10/29 10:23:56;;;;;;;;;;;15.00;99.90;;;;;;6758929;88;20042;-81
2023/10/29 10:34:10;;;;;;;;;;;15.00;99.90;;;;;;6759918;88;20173;-81
2023/10/29 10:44:12;;;;;;;;;;;15.00;99.90;;;;;;6739295;88;20110;-80
2023/10/29 10:54:12;;;;;;;;;;;15.00;99.90;;;;;;6738296;88;20065;-81
2023/10/29 11:04:13;;;;;;;;;;;15.10;99.90;;;;;;6736821;88;20075;-80
2023/10/29 11:14:15;;;;;;;;;;;15.10;99.90;;;;;;6738101;88;20046;-80
2023/10/29 11:24:22;;;;;;;;;;;15.20;99.90;;;;;;6733747;88;20104;-81
2023/10/29 11:34:22;;;;;;;;;;;15.30;99.90;;;;;;6747743;88;20065;-80
2023/10/29 11:44:29;;;;;;;;;;;15.40;99.90;;;;;;6734190;88;20139;-81
2023/10/29 11:54:33;;;;;;;;;;;15.90;99.90;;;;;;6736592;88;20066;-80
2023/10/29 12:14:42;;;;;;;;;;;16.20;99.90;;;;;;6736121;88;20078;-77
2023/10/29 12:24:43;;;;;;;;;;;16.00;99.90;;;;;;6725408;88;20469;-78
2023/10/29 12:34:48;;;;;;;;;;;15.90;99.90;;;;;;6723295;88;20054;-78
2023/10/29 12:44:53;;;;;;;;;;;16.30;99.90;;;;;;6726318;88;20500;-78
2023/10/29 12:54:53;;;;;;;;;;;16.00;99.90;;;;;;6723304;88;20554;-81
2023/10/29 13:04:54;;;;;;;;;;;15.80;99.90;;;;;;6719072;88;20198;-79
2023/10/29 13:14:55;;;;;;;;;;;15.60;99.90;;;;;;6720798;88;20066;-78
2023/10/29 13:24:58;;;;;;;;;;;16.80;99.90;;;;;;6719620;88;20058;-80
2023/10/29 13:34:59;;;;;;;;;;;17.50;99.90;;;;;;6721232;88;20208;-79
2023/10/29 13:44:59;;;;;;;;;;;16.40;99.90;;;;;;6724403;88;20588;-79
2023/10/29 13:55:00;;;;;;;;;;;16.70;99.90;;;;;;6729097;88;20201;-78
2023/10/29 14:05:00;;;;;;;;;;;16.10;99.90;;;;;;6725405;88;20560;-80
2023/10/29 14:15:01;;;;;;;;;;;16.40;99.90;;;;;;6726186;88;20117;-77
2023/10/29 14:25:04;;;;;;;;;;;16.80;99.90;;;;;;6724363;88;20063;-80
2023/10/29 14:35:05;;;;;;;;;;;16.60;99.90;;;;;;6745126;88;20064;-78
2023/10/29 14:45:06;;;;;;;;;;;16.40;99.90;;;;;;6745037;88;20103;-79
2023/10/29 14:55:08;;;;;;;;;;;15.90;99.90;;;;;;6743472;88;20164;-80
2023/10/29 15:05:09;;;;;;;;;;;15.60;99.90;;;;;;6744458;87;20220;-79
2023/10/29 15:15:10;;;;;;;;;;;15.50;99.90;;;;;;6742574;88;20262;-79
2023/10/29 15:25:11;;;;;;;;;;;15.40;99.90;;;;;;6740619;88;20077;-79
2023/10/29 15:35:12;;;;;;;;;;;15.20;99.90;;;;;;6742849;88;20079;-78
2023/10/29 15:45:12;;;;;;;;;;;15.10;99.90;;;;;;6736258;88;20162;-79
2023/10/29 15:55:13;;;;;;;;;;;15.00;99.90;;;;;;6726344;88;20113;-79
2023/10/29 16:05:14;;;;;;;;;;;14.90;99.90;;;;;;6726896;88;20063;-79
2023/10/29 16:15:14;;;;;;;;;;;14.90;99.90;;;;;;6728167;88;20069;-78
2023/10/29 16:25:15;;;;;;;;;;;14.80;99.90;;;;;;6710042;88;20122;-79
2023/10/29 16:35:15;;;;;;;;;;;14.60;99.90;;;;;;6724078;88;20054;-78
2023/10/29 16:55:19;;;;;;;;;;;14.30;99.90;;;;;;6724491;88;20090;-79
2023/10/29 17:05:20;;;;;;;;;;;14.20;99.90;;;;;;6712366;88;20117;-78
2023/10/29 17:15:20;;;;;;;;;;;14.10;99.90;;;;;;6715282;88;20086;-80
2023/10/29 17:25:21;;;;;;;;;;;13.90;99.90;;;;;;6721582;88;20067;-81
2023/10/29 17:35:21;;;;;;;;;;;13.90;99.90;;;;;;6722833;88;20062;-84
2023/10/29 17:45:22;;;;;;;;;;;13.80;99.90;;;;;;6715930;88;20163;-79
2023/10/29 17:55:22;;;;;;;;;;;13.70;99.90;;;;;;6711828;88;20081;-80
2023/10/29 18:05:22;;;;;;;;;;;13.70;99.90;;;;;;6716990;77;20497;-76
2023/10/29 18:15:23;;;;;;;;;;;13.60;99.90;;;;;;6691890;88;20134;-78
2023/10/29 18:25:23;;;;;;;;;;;13.60;99.90;;;;;;6703506;88;20127;-78
2023/10/29 18:35:24;;;;;;;;;;;13.80;99.90;;;;;;6691965;88;20503;-78
2023/10/29 18:45:24;;;;;;;;;;;13.60;99.90;;;;;;6694108;88;20199;-78
2023/10/29 18:55:25;;;;;;;;;;;13.50;99.90;;;;;;6715614;88;20092;-79
2023/10/29 19:05:26;;;;;;;;;;;13.50;99.90;;;;;;6704972;88;20658;-78
2023/10/29 19:15:29;;;;;;;;;;;13.60;99.90;;;;;;6690477;88;20179;-79
2023/10/29 19:25:29;;;;;;;;;;;13.50;99.90;;;;;;6697880;88;20142;-78
2023/10/29 19:35:30;;;;;;;;;;;13.50;99.90;;;;;;6693826;88;20587;-80
2023/10/29 19:45:31;;;;;;;;;;;13.40;99.90;;;;;;6694664;88;20576;-81
2023/10/29 19:55:31;;;;;;;;;;;13.30;99.90;;;;;;6692181;88;20088;-81
2023/10/29 20:05:35;;;;;;;;;;;13.30;99.90;;;;;;6705272;88;20064;-80
2023/10/29 20:15:35;;;;;;;;;;;13.10;99.90;;;;;;6700606;88;20086;-81
2023/10/29 20:25:36;;;;;;;;;;;13.20;99.90;;;;;;6712332;88;20094;-79
2023/10/29 20:35:39;;;;;;;;;;;13.20;99.90;;;;;;6702123;88;20134;-80
2023/10/29 20:45:40;;;;;;;;;;;13.20;99.90;;;;;;6700034;88;20080;-80
2023/10/29 20:55:40;;;;;;;;;;;13.10;99.90;;;;;;6707032;88;20055;-80
2023/10/29 21:05:41;;;;;;;;;;;13.20;99.90;;;;;;6703903;88;20539;-80
2023/10/29 21:15:43;;;;;;;;;;;13.20;99.90;;;;;;6703749;88;20057;-81
2023/10/29 21:25:44;;;;;;;;;;;13.10;99.90;;;;;;6676360;89;20063;-79
2023/10/29 21:35:44;;;;;;;;;;;13.10;99.90;;;;;;6673243;89;20167;-78
2023/10/29 21:45:45;;;;;;;;;;;13.10;99.90;;;;;;6687597;88;20255;-78
2023/10/29 21:55:45;;;;;;;;;;;13.00;99.90;;;;;;6699090;88;20243;-79
2023/10/29 22:05:59;;;;;;;;;;;12.90;99.90;;;;;;6697891;88;20064;-81
2023/10/29 22:16:06;;;;;;;;;;;12.70;99.90;;;;;;6676902;89;20157;-80
2023/10/29 22:26:08;;;;;;;;;;;12.60;99.90;;;;;;6690589;88;20072;-79
2023/10/29 22:36:08;;;;;;;;;;;12.50;99.90;;;;;;6693881;88;20622;-80
2023/10/29 22:46:15;;;;;;;;;;;12.60;99.90;;;;;;6705993;88;20065;-80
2023/10/29 22:56:16;;;;;;;;;;;12.60;99.90;;;;;;6692154;88;20074;-79
2023/10/29 23:06:16;;;;;;;;;;;12.50;99.90;;;;;;6680665;89;20650;-80
2023/10/29 23:16:17;;;;;;;;;;;12.30;99.90;;;;;;6700368;88;20083;-80
2023/10/29 23:26:17;;;;;;;;;;;12.20;99.90;;;;;;6695815;88;20082;-80
2023/10/29 23:36:18;;;;;;;;;;;12.20;99.90;;;;;;6696134;88;20068;-80
2023/10/29 23:46:19;;;;;;;;;;;12.10;99.90;;;;;;6690831;88;20088;-80
2023/10/29 23:56:20;;;;;;;;;;;12.20;99.90;;;;;;6695345;88;20231;-80
